createdAt,value
2018-12-08T00:00:38.889Z,5.60
2018-12-08T00:03:15.759Z,5.50
2018-12-08T00:05:52.658Z,5.50
2018-12-08T00:08:30.855Z,5.50
2018-12-08T00:11:08.984Z,5.50
2018-12-08T00:13:49.358Z,5.40
2018-12-08T00:16:28.091Z,5.40
2018-12-08T00:22:18.291Z,5.40
2018-12-08T00:25:00.661Z,5.40
2018-12-08T00:27:47.322Z,5.40
2018-12-08T00:33:41.085Z,5.50
2018-12-08T00:54:41.598Z,5.60
2018-12-08T00:57:18.214Z,5.60
2018-12-08T01:00:02.682Z,5.60
2018-12-08T01:02:39.059Z,5.60
2018-12-08T01:05:17.307Z,5.60
2018-12-08T01:08:02.216Z,5.60
2018-12-08T01:10:38.925Z,5.70
2018-12-08T01:13:15.618Z,5.70
2018-12-08T01:15:52.541Z,5.70
2018-12-08T01:18:42.911Z,5.70
2018-12-08T01:21:31.797Z,5.70
2018-12-08T01:24:20.811Z,5.70
2018-12-08T01:36:05.266Z,5.70
2018-12-08T01:38:43.573Z,5.70
2018-12-08T01:41:22.446Z,5.70
2018-12-08T01:44:08.961Z,5.70
2018-12-08T01:58:36.222Z,5.60
2018-12-08T02:07:32.242Z,5.60
2018-12-08T02:49:38.534Z,5.70
2018-12-08T02:52:29.819Z,5.70
2018-12-08T02:55:12.402Z,5.70
2018-12-08T02:58:03.117Z,5.70
2018-12-08T03:00:54.071Z,5.60
2018-12-08T03:03:33.612Z,5.60
2018-12-08T03:06:16.453Z,5.60
2018-12-08T03:08:58.449Z,5.70
2018-12-08T03:11:45.037Z,5.70
2018-12-08T03:14:31.726Z,5.70
2018-12-08T03:17:15.156Z,5.70
2018-12-08T03:20:02.597Z,5.70
2018-12-08T03:22:53.000Z,5.70
2018-12-08T03:31:41.106Z,5.70
2018-12-08T03:40:33.898Z,5.70
2018-12-08T04:22:34.453Z,5.70
2018-12-08T04:52:49.758Z,5.90
2018-12-08T04:55:39.109Z,5.90
2018-12-08T05:13:24.799Z,5.80
2018-12-08T05:25:09.433Z,5.90
2018-12-08T05:46:07.428Z,5.90
2018-12-08T05:48:58.913Z,5.90
2018-12-08T06:03:55.921Z,5.90
2018-12-08T06:30:59.343Z,6.00
2018-12-08T06:33:40.111Z,6.00
2018-12-08T06:36:21.323Z,6.00
2018-12-08T06:39:06.734Z,6.00
2018-12-08T06:44:47.641Z,6.00
2018-12-08T06:47:34.865Z,6.10
2018-12-08T07:36:17.071Z,6.10
2018-12-08T08:24:27.044Z,5.90
2018-12-08T08:36:11.529Z,5.90
2018-12-08T08:38:52.504Z,5.80
2018-12-08T08:47:35.462Z,5.80
2018-12-08T09:36:04.584Z,6.00
2018-12-08T09:41:46.234Z,6.10
2018-12-08T09:50:32.265Z,6.10
2018-12-08T09:53:13.038Z,6.20
2018-12-08T09:56:02.005Z,6.20
2018-12-08T10:01:31.750Z,6.30
2018-12-08T10:04:05.843Z,6.40
2018-12-08T10:06:48.759Z,6.40
2018-12-08T10:09:25.337Z,6.40
2018-12-08T10:12:01.686Z,6.40
2018-12-08T10:14:38.076Z,6.40
2018-12-08T10:17:14.407Z,6.40
2018-12-08T10:19:50.906Z,6.40
2018-12-08T10:22:28.035Z,6.40
2018-12-08T10:25:04.828Z,6.50
2018-12-08T10:27:42.749Z,6.50
2018-12-08T10:30:19.649Z,6.50
2018-12-08T10:32:56.673Z,6.50
2018-12-08T10:35:33.490Z,6.50
2018-12-08T10:38:25.431Z,6.50
2018-12-08T10:41:08.146Z,6.60
2018-12-08T10:43:44.433Z,6.60
2018-12-08T10:47:58.241Z,6.60
2018-12-08T10:50:30.491Z,6.70
2018-12-08T10:53:08.593Z,6.70
2018-12-08T10:55:46.924Z,6.70
2018-12-08T11:01:18.617Z,6.80
2018-12-08T11:03:55.186Z,6.80
2018-12-08T11:09:34.934Z,6.90
2018-12-08T11:12:13.001Z,6.90
2018-12-08T11:14:49.277Z,6.90
2018-12-08T11:17:23.700Z,6.90
2018-12-08T11:19:59.961Z,6.90
2018-12-08T11:22:36.541Z,7.00
2018-12-08T11:25:21.122Z,7.00
2018-12-08T11:30:50.474Z,7.00
2018-12-08T11:39:35.111Z,7.10
2018-12-08T11:45:19.518Z,7.10
2018-12-08T11:48:04.613Z,7.10
2018-12-08T11:50:40.789Z,7.20
2018-12-08T11:53:18.993Z,7.20
2018-12-08T11:58:56.497Z,7.20
2018-12-08T12:01:34.654Z,7.20
2018-12-08T12:04:11.358Z,7.30
2018-12-08T12:06:47.756Z,7.30
2018-12-08T12:09:25.886Z,7.30
2018-12-08T12:12:04.805Z,7.30
2018-12-08T12:17:49.591Z,7.40
2018-12-08T12:20:32.715Z,7.40
2018-12-08T12:50:46.772Z,7.50
2018-12-08T13:48:13.014Z,7.50
2018-12-08T14:21:31.670Z,7.60
2018-12-08T14:36:05.065Z,7.70
2018-12-08T14:44:54.161Z,7.70
2018-12-08T14:56:45.816Z,7.80
2018-12-08T15:05:32.347Z,7.80
2018-12-08T15:08:09.202Z,7.80
2018-12-08T15:10:46.094Z,7.80
2018-12-08T15:28:34.415Z,7.90
2018-12-08T15:34:13.282Z,7.90
2018-12-08T15:40:02.183Z,7.90
2018-12-08T15:42:39.025Z,7.80
2018-12-08T15:48:21.162Z,7.80
2018-12-08T16:36:44.925Z,8.00
2018-12-08T16:39:25.423Z,8.00
2018-12-08T16:42:02.190Z,8.00
2018-12-08T16:44:46.534Z,8.10
2018-12-08T16:47:27.481Z,8.10
2018-12-08T16:50:04.522Z,8.10
2018-12-08T17:01:58.257Z,8.10
2018-12-08T17:13:43.382Z,8.10
2018-12-08T17:16:21.808Z,8.10
2018-12-08T17:19:02.239Z,8.10
2018-12-08T17:21:39.840Z,8.00
2018-12-08T17:24:16.455Z,8.10
2018-12-08T17:35:58.300Z,8.10
2018-12-08T17:38:39.414Z,8.00
2018-12-08T17:41:20.573Z,8.00
2018-12-08T17:44:06.965Z,8.00
2018-12-08T17:49:54.045Z,8.00
2018-12-08T17:52:32.872Z,7.90
2018-12-08T17:55:10.932Z,7.90
2018-12-08T17:57:47.225Z,7.90
2018-12-08T18:00:28.093Z,7.90
2018-12-08T18:03:07.373Z,7.90
2018-12-08T18:05:54.462Z,7.90
2018-12-08T18:08:33.117Z,7.90
2018-12-08T18:11:12.121Z,7.90
2018-12-08T18:14:02.544Z,7.90
2018-12-08T18:22:47.404Z,7.90
2018-12-08T18:25:28.307Z,7.90
2018-12-08T18:28:05.376Z,7.90
2018-12-08T18:33:44.441Z,7.90
2018-12-08T18:36:25.238Z,7.90
2018-12-08T18:39:10.336Z,7.90
2018-12-08T18:41:51.678Z,7.90
2018-12-08T18:44:28.529Z,7.90
2018-12-08T18:47:07.038Z,7.90
2018-12-08T18:49:45.100Z,7.80
2018-12-08T18:52:21.801Z,7.80
2018-12-08T18:55:06.402Z,7.80
2018-12-08T18:57:45.079Z,7.80
2018-12-08T19:03:23.981Z,7.80
2018-12-08T19:06:04.414Z,7.70
2018-12-08T19:08:41.265Z,7.70
2018-12-08T19:11:17.492Z,7.70
2018-12-08T19:13:56.100Z,7.70
2018-12-08T19:19:36.044Z,7.70
2018-12-08T19:28:19.704Z,7.70
2018-12-08T19:33:51.561Z,7.60
2018-12-08T19:36:35.923Z,7.60
2018-12-08T19:39:13.940Z,7.60
2018-12-08T19:41:52.304Z,7.60
2018-12-08T19:44:39.883Z,7.60
2018-12-08T19:50:27.382Z,7.60
2018-12-08T19:56:07.025Z,7.60
2018-12-08T20:01:46.085Z,7.60
2018-12-08T20:04:26.444Z,7.60
2018-12-08T20:10:14.620Z,7.60
2018-12-08T20:13:00.088Z,7.60
2018-12-08T20:21:51.636Z,7.60
2018-12-08T20:24:39.060Z,7.60
2018-12-08T20:27:17.385Z,7.70
2018-12-08T20:29:59.411Z,7.70
2018-12-08T20:47:43.465Z,7.80
2018-12-08T20:50:19.846Z,7.80
2018-12-08T20:53:10.333Z,7.80
2018-12-08T20:55:46.814Z,7.80
2018-12-08T20:58:31.283Z,7.90
2018-12-08T21:07:23.477Z,8.00
2018-12-08T21:10:01.666Z,8.00
2018-12-08T21:18:43.370Z,8.10
2018-12-08T21:24:26.554Z,8.10
2018-12-08T21:27:02.955Z,8.10
2018-12-08T21:29:47.540Z,8.20
2018-12-08T21:32:26.106Z,8.20
2018-12-08T21:35:06.359Z,8.30
2018-12-08T21:37:47.444Z,8.30
2018-12-08T21:43:30.776Z,8.40
2018-12-08T21:49:06.052Z,8.40
2018-12-08T21:51:47.173Z,8.50
2018-12-08T21:54:28.050Z,8.50
2018-12-08T21:57:04.879Z,8.50
2018-12-08T21:59:48.140Z,8.50
2018-12-08T22:02:29.046Z,8.60
2018-12-08T22:05:16.900Z,8.50
2018-12-08T22:07:57.732Z,8.50
2018-12-08T22:10:43.379Z,8.60
2018-12-08T22:13:27.907Z,8.60
2018-12-08T22:16:06.644Z,8.60
2018-12-08T22:18:46.986Z,8.60
2018-12-08T22:21:25.961Z,8.60
2018-12-08T22:24:04.140Z,8.60
2018-12-08T22:26:40.838Z,8.60
2018-12-08T22:29:18.928Z,8.60
2018-12-08T22:31:59.792Z,8.60
2018-12-08T22:34:36.275Z,8.60
2018-12-08T22:37:11.406Z,8.60
2018-12-08T22:39:51.905Z,8.60
2018-12-08T22:42:36.232Z,8.60
2018-12-08T22:45:15.189Z,8.60
2018-12-08T22:47:59.742Z,8.60
2018-12-08T22:50:37.914Z,8.60
2018-12-08T22:53:16.143Z,8.60
2018-12-08T22:56:03.009Z,8.60
2018-12-08T22:58:43.562Z,8.70
2018-12-08T23:01:22.559Z,8.70
2018-12-08T23:03:58.864Z,8.60
2018-12-08T23:09:49.625Z,8.70
2018-12-08T23:17:48.726Z,8.70
2018-12-08T23:20:33.242Z,8.70
2018-12-08T23:44:11.311Z,8.60
2018-12-08T23:46:58.062Z,8.60
2018-12-08T23:49:34.663Z,8.70
2018-12-08T23:52:12.834Z,8.60
2018-12-08T23:54:57.673Z,8.60
